sensor_id;sensor_type;location;lat;lon;timestamp;P1;durP1;ratioP1;P2;durP2;ratioP2
15383;SDS011;7790;53.022;12.968;2022-09-29T00:02:40;2.00;;;1.17;;
15383;SDS011;7790;53.022;12.968;2022-09-29T00:06:41;1.97;;;1.23;;
15383;SDS011;7790;53.022;12.968;2022-09-29T00:10:42;2.07;;;1.13;;
15383;SDS011;7790;53.022;12.968;2022-09-29T00:14:43;2.27;;;1.10;;
15383;SDS011;7790;53.022;12.968;2022-09-29T00:18:43;2.00;;;1.20;;
15383;SDS011;7790;53.022;12.968;2022-09-29T00:22:48;1.63;;;0.93;;
15383;SDS011;7790;53.022;12.968;2022-09-29T00:26:49;1.73;;;1.07;;
15383;SDS011;7790;53.022;12.968;2022-09-29T00:30:50;1.57;;;1.20;;
15383;SDS011;7790;53.022;12.968;2022-09-29T00:34:51;1.27;;;1.17;;
15383;SDS011;7790;53.022;12.968;2022-09-29T00:38:52;0.80;;;0.80;;
15383;SDS011;7790;53.022;12.968;2022-09-29T00:42:53;0.73;;;0.73;;
15383;SDS011;7790;53.022;12.968;2022-09-29T00:46:55;2.63;;;1.40;;
15383;SDS011;7790;53.022;12.968;2022-09-29T00:50:59;1.93;;;0.80;;
15383;SDS011;7790;53.022;12.968;2022-09-29T00:59:07;1.33;;;1.10;;
15383;SDS011;7790;53.022;12.968;2022-09-29T01:03:13;1.10;;;0.93;;
15383;SDS011;7790;53.022;12.968;2022-09-29T01:07:22;1.23;;;0.90;;
15383;SDS011;7790;53.022;12.968;2022-09-29T01:11:24;0.80;;;0.80;;
15383;SDS011;7790;53.022;12.968;2022-09-29T01:15:25;2.10;;;1.10;;
15383;SDS011;7790;53.022;12.968;2022-09-29T01:28:19;1.00;;;0.90;;
15383;SDS011;7790;53.022;12.968;2022-09-29T01:32:28;1.80;;;0.83;;
15383;SDS011;7790;53.022;12.968;2022-09-29T01:41:07;1.43;;;1.00;;
15383;SDS011;7790;53.022;12.968;2022-09-29T01:45:11;0.83;;;0.80;;
15383;SDS011;7790;53.022;12.968;2022-09-29T01:49:16;1.00;;;0.80;;
15383;SDS011;7790;53.022;12.968;2022-09-29T01:53:22;0.87;;;0.70;;
15383;SDS011;7790;53.022;12.968;2022-09-29T01:57:31;1.23;;;0.97;;
15383;SDS011;7790;53.022;12.968;2022-09-29T02:01:39;1.10;;;0.90;;
15383;SDS011;7790;53.022;12.968;2022-09-29T02:05:54;3.13;;;1.00;;
15383;SDS011;7790;53.022;12.968;2022-09-29T02:10:03;3.03;;;1.10;;
15383;SDS011;7790;53.022;12.968;2022-09-29T02:18:33;1.70;;;0.80;;
15383;SDS011;7790;53.022;12.968;2022-09-29T02:22:56;1.57;;;0.80;;
15383;SDS011;7790;53.022;12.968;2022-09-29T02:26:57;0.97;;;0.90;;
15383;SDS011;7790;53.022;12.968;2022-09-29T02:30:58;2.73;;;0.90;;
15383;SDS011;7790;53.022;12.968;2022-09-29T02:35:00;0.73;;;0.70;;
15383;SDS011;7790;53.022;12.968;2022-09-29T02:39:14;0.63;;;0.63;;
15383;SDS011;7790;53.022;12.968;2022-09-29T03:00:53;1.87;;;0.90;;
15383;SDS011;7790;53.022;12.968;2022-09-29T03:04:54;1.67;;;0.80;;
15383;SDS011;7790;53.022;12.968;2022-09-29T03:08:55;0.67;;;0.67;;
15383;SDS011;7790;53.022;12.968;2022-09-29T03:12:56;0.70;;;0.70;;
15383;SDS011;7790;53.022;12.968;2022-09-29T03:16:56;0.60;;;0.60;;
15383;SDS011;7790;53.022;12.968;2022-09-29T03:20:57;0.80;;;0.80;;
15383;SDS011;7790;53.022;12.968;2022-09-29T03:24:58;0.73;;;0.73;;
15383;SDS011;7790;53.022;12.968;2022-09-29T03:28:59;0.97;;;0.90;;
15383;SDS011;7790;53.022;12.968;2022-09-29T03:33:00;0.67;;;0.67;;
15383;SDS011;7790;53.022;12.968;2022-09-29T03:37:01;0.60;;;0.60;;
15383;SDS011;7790;53.022;12.968;2022-09-29T03:41:03;0.70;;;0.70;;
15383;SDS011;7790;53.022;12.968;2022-09-29T03:45:04;0.70;;;0.70;;
15383;SDS011;7790;53.022;12.968;2022-09-29T03:49:06;0.73;;;0.73;;
15383;SDS011;7790;53.022;12.968;2022-09-29T03:53:10;1.43;;;0.70;;
15383;SDS011;7790;53.022;12.968;2022-09-29T03:57:12;0.80;;;0.80;;
15383;SDS011;7790;53.022;12.968;2022-09-29T04:01:13;0.87;;;0.70;;
15383;SDS011;7790;53.022;12.968;2022-09-29T04:05:13;1.40;;;0.90;;
15383;SDS011;7790;53.022;12.968;2022-09-29T04:09:15;0.63;;;0.63;;
15383;SDS011;7790;53.022;12.968;2022-09-29T04:13:15;1.40;;;0.83;;
15383;SDS011;7790;53.022;12.968;2022-09-29T04:17:16;0.67;;;0.63;;
15383;SDS011;7790;53.022;12.968;2022-09-29T04:21:17;0.60;;;0.60;;
15383;SDS011;7790;53.022;12.968;2022-09-29T04:25:18;0.70;;;0.70;;
15383;SDS011;7790;53.022;12.968;2022-09-29T04:29:19;0.97;;;0.90;;
15383;SDS011;7790;53.022;12.968;2022-09-29T04:33:20;0.70;;;0.70;;
15383;SDS011;7790;53.022;12.968;2022-09-29T04:37:21;0.90;;;0.90;;
15383;SDS011;7790;53.022;12.968;2022-09-29T04:41:21;1.00;;;0.90;;
15383;SDS011;7790;53.022;12.968;2022-09-29T04:45:22;0.87;;;0.70;;
15383;SDS011;7790;53.022;12.968;2022-09-29T04:49:23;1.50;;;0.67;;
15383;SDS011;7790;53.022;12.968;2022-09-29T04:53:24;0.70;;;0.70;;
15383;SDS011;7790;53.022;12.968;2022-09-29T04:57:25;0.80;;;0.80;;
15383;SDS011;7790;53.022;12.968;2022-09-29T05:01:26;0.80;;;0.80;;
15383;SDS011;7790;53.022;12.968;2022-09-29T05:05:27;1.70;;;0.80;;
15383;SDS011;7790;53.022;12.968;2022-09-29T05:09:28;0.60;;;0.60;;
15383;SDS011;7790;53.022;12.968;2022-09-29T05:13:28;0.97;;;0.63;;
15383;SDS011;7790;53.022;12.968;2022-09-29T05:17:29;0.67;;;0.67;;
15383;SDS011;7790;53.022;12.968;2022-09-29T05:21:30;0.70;;;0.70;;
15383;SDS011;7790;53.022;12.968;2022-09-29T05:25:31;1.30;;;0.70;;
15383;SDS011;7790;53.022;12.968;2022-09-29T05:29:32;0.60;;;0.60;;
15383;SDS011;7790;53.022;12.968;2022-09-29T05:33:33;0.70;;;0.70;;
15383;SDS011;7790;53.022;12.968;2022-09-29T05:37:34;0.50;;;0.50;;
15383;SDS011;7790;53.022;12.968;2022-09-29T05:41:35;0.60;;;0.60;;
15383;SDS011;7790;53.022;12.968;2022-09-29T05:45:36;0.60;;;0.60;;
15383;SDS011;7790;53.022;12.968;2022-09-29T05:49:37;0.70;;;0.70;;
15383;SDS011;7790;53.022;12.968;2022-09-29T05:53:38;0.60;;;0.60;;
15383;SDS011;7790;53.022;12.968;2022-09-29T05:57:40;0.60;;;0.60;;
15383;SDS011;7790;53.022;12.968;2022-09-29T06:01:41;0.43;;;0.43;;
15383;SDS011;7790;53.022;12.968;2022-09-29T06:05:42;0.50;;;0.50;;
15383;SDS011;7790;53.022;12.968;2022-09-29T06:09:43;1.37;;;0.80;;
15383;SDS011;7790;53.022;12.968;2022-09-29T06:13:45;2.00;;;0.80;;
15383;SDS011;7790;53.022;12.968;2022-09-29T06:17:53;0.80;;;0.80;;
15383;SDS011;7790;53.022;12.968;2022-09-29T06:21:55;0.60;;;0.60;;
15383;SDS011;7790;53.022;12.968;2022-09-29T06:25:59;0.80;;;0.80;;
15383;SDS011;7790;53.022;12.968;2022-09-29T06:30:02;0.60;;;0.60;;
15383;SDS011;7790;53.022;12.968;2022-09-29T06:34:03;1.23;;;0.60;;
15383;SDS011;7790;53.022;12.968;2022-09-29T06:38:04;0.67;;;0.67;;
15383;SDS011;7790;53.022;12.968;2022-09-29T06:42:05;0.70;;;0.70;;
15383;SDS011;7790;53.022;12.968;2022-09-29T06:46:07;0.70;;;0.70;;
15383;SDS011;7790;53.022;12.968;2022-09-29T06:50:08;0.87;;;0.70;;
15383;SDS011;7790;53.022;12.968;2022-09-29T06:54:10;1.03;;;0.53;;
15383;SDS011;7790;53.022;12.968;2022-09-29T06:58:11;0.60;;;0.60;;
15383;SDS011;7790;53.022;12.968;2022-09-29T07:02:12;0.70;;;0.60;;
15383;SDS011;7790;53.022;12.968;2022-09-29T07:06:13;2.63;;;0.87;;
15383;SDS011;7790;53.022;12.968;2022-09-29T07:10:14;1.47;;;0.80;;
15383;SDS011;7790;53.022;12.968;2022-09-29T07:14:15;0.87;;;0.80;;
15383;SDS011;7790;53.022;12.968;2022-09-29T07:18:18;10.47;;;1.40;;
15383;SDS011;7790;53.022;12.968;2022-09-29T07:22:19;6.63;;;1.20;;
15383;SDS011;7790;53.022;12.968;2022-09-29T07:26:19;6.00;;;1.30;;
15383;SDS011;7790;53.022;12.968;2022-09-29T07:30:21;7.93;;;1.60;;
15383;SDS011;7790;53.022;12.968;2022-09-29T07:34:22;6.50;;;1.17;;
15383;SDS011;7790;53.022;12.968;2022-09-29T07:38:23;5.20;;;1.17;;
15383;SDS011;7790;53.022;12.968;2022-09-29T07:42:23;4.87;;;1.23;;
15383;SDS011;7790;53.022;12.968;2022-09-29T07:46:30;6.60;;;1.63;;
15383;SDS011;7790;53.022;12.968;2022-09-29T07:50:32;7.33;;;1.70;;
15383;SDS011;7790;53.022;12.968;2022-09-29T07:54:34;9.97;;;1.90;;
15383;SDS011;7790;53.022;12.968;2022-09-29T07:58:35;16.47;;;2.40;;
15383;SDS011;7790;53.022;12.968;2022-09-29T08:02:37;14.07;;;2.37;;
15383;SDS011;7790;53.022;12.968;2022-09-29T08:06:38;9.23;;;2.00;;
15383;SDS011;7790;53.022;12.968;2022-09-29T08:10:40;20.73;;;2.77;;
15383;SDS011;7790;53.022;12.968;2022-09-29T08:14:41;6.93;;;2.13;;
15383;SDS011;7790;53.022;12.968;2022-09-29T08:18:42;10.07;;;1.60;;
15383;SDS011;7790;53.022;12.968;2022-09-29T08:22:43;6.97;;;1.93;;
15383;SDS011;7790;53.022;12.968;2022-09-29T08:26:44;5.93;;;1.63;;
15383;SDS011;7790;53.022;12.968;2022-09-29T08:30:45;7.77;;;1.97;;
15383;SDS011;7790;53.022;12.968;2022-09-29T08:34:46;12.87;;;2.20;;
15383;SDS011;7790;53.022;12.968;2022-09-29T08:38:48;9.00;;;1.97;;
15383;SDS011;7790;53.022;12.968;2022-09-29T08:42:56;3.93;;;1.57;;
15383;SDS011;7790;53.022;12.968;2022-09-29T08:47:13;3.23;;;1.53;;
15383;SDS011;7790;53.022;12.968;2022-09-29T08:55:39;5.30;;;1.70;;
15383;SDS011;7790;53.022;12.968;2022-09-29T09:00:03;7.43;;;1.90;;
15383;SDS011;7790;53.022;12.968;2022-09-29T09:13:11;6.03;;;2.30;;
15383;SDS011;7790;53.022;12.968;2022-09-29T09:22:00;8.67;;;2.50;;
15383;SDS011;7790;53.022;12.968;2022-09-29T09:30:38;8.53;;;2.10;;
15383;SDS011;7790;53.022;12.968;2022-09-29T09:34:45;7.30;;;2.17;;
15383;SDS011;7790;53.022;12.968;2022-09-29T09:39:15;8.40;;;2.10;;
15383;SDS011;7790;53.022;12.968;2022-09-29T09:43:21;15.67;;;2.67;;
15383;SDS011;7790;53.022;12.968;2022-09-29T09:47:33;8.73;;;2.40;;
15383;SDS011;7790;53.022;12.968;2022-09-29T09:56:05;11.50;;;2.43;;
15383;SDS011;7790;53.022;12.968;2022-09-29T10:00:29;9.83;;;2.10;;
15383;SDS011;7790;53.022;12.968;2022-09-29T10:04:35;9.73;;;2.20;;
15383;SDS011;7790;53.022;12.968;2022-09-29T10:08:37;8.33;;;2.63;;
15383;SDS011;7790;53.022;12.968;2022-09-29T10:12:40;10.63;;;2.73;;
15383;SDS011;7790;53.022;12.968;2022-09-29T10:16:45;12.13;;;2.33;;
15383;SDS011;7790;53.022;12.968;2022-09-29T10:20:51;7.13;;;2.07;;
15383;SDS011;7790;53.022;12.968;2022-09-29T10:24:53;7.40;;;2.20;;
15383;SDS011;7790;53.022;12.968;2022-09-29T10:29:18;8.03;;;1.80;;
15383;SDS011;7790;53.022;12.968;2022-09-29T10:33:24;5.13;;;2.10;;
15383;SDS011;7790;53.022;12.968;2022-09-29T10:37:36;9.00;;;1.80;;
15383;SDS011;7790;53.022;12.968;2022-09-29T10:41:49;8.00;;;2.10;;
15383;SDS011;7790;53.022;12.968;2022-09-29T10:45:53;3.23;;;1.70;;
15383;SDS011;7790;53.022;12.968;2022-09-29T10:54:08;4.03;;;1.30;;
15383;SDS011;7790;53.022;12.968;2022-09-29T10:58:24;4.53;;;1.60;;
15383;SDS011;7790;53.022;12.968;2022-09-29T11:02:30;5.73;;;2.30;;
15383;SDS011;7790;53.022;12.968;2022-09-29T11:06:38;4.27;;;1.90;;
15383;SDS011;7790;53.022;12.968;2022-09-29T11:10:40;6.20;;;1.80;;
15383;SDS011;7790;53.022;12.968;2022-09-29T11:14:42;5.70;;;1.70;;
15383;SDS011;7790;53.022;12.968;2022-09-29T11:18:44;6.27;;;1.80;;
15383;SDS011;7790;53.022;12.968;2022-09-29T11:27:14;4.07;;;1.50;;
15383;SDS011;7790;53.022;12.968;2022-09-29T11:31:28;3.20;;;1.40;;
15383;SDS011;7790;53.022;12.968;2022-09-29T11:35:47;4.87;;;1.50;;
15383;SDS011;7790;53.022;12.968;2022-09-29T11:40:00;3.30;;;1.90;;
15383;SDS011;7790;53.022;12.968;2022-09-29T11:48:22;9.03;;;3.80;;
15383;SDS011;7790;53.022;12.968;2022-09-29T11:57:13;10.00;;;4.20;;
15383;SDS011;7790;53.022;12.968;2022-09-29T12:18:29;10.03;;;5.70;;
15383;SDS011;7790;53.022;12.968;2022-09-29T12:22:38;13.57;;;5.30;;
15383;SDS011;7790;53.022;12.968;2022-09-29T12:26:42;9.40;;;5.33;;
15383;SDS011;7790;53.022;12.968;2022-09-29T12:30:51;10.73;;;5.17;;
15383;SDS011;7790;53.022;12.968;2022-09-29T12:35:16;17.60;;;5.27;;
15383;SDS011;7790;53.022;12.968;2022-09-29T12:39:40;17.33;;;5.33;;
15383;SDS011;7790;53.022;12.968;2022-09-29T12:52:51;13.90;;;5.13;;
15383;SDS011;7790;53.022;12.968;2022-09-29T12:57:05;11.20;;;4.60;;
15383;SDS011;7790;53.022;12.968;2022-09-29T13:05:48;10.77;;;4.40;;
15383;SDS011;7790;53.022;12.968;2022-09-29T13:23:39;8.37;;;4.47;;
15383;SDS011;7790;53.022;12.968;2022-09-29T13:28:00;10.73;;;4.57;;
15383;SDS011;7790;53.022;12.968;2022-09-29T13:32:02;11.33;;;4.13;;
15383;SDS011;7790;53.022;12.968;2022-09-29T13:36:03;7.80;;;4.07;;
15383;SDS011;7790;53.022;12.968;2022-09-29T13:40:04;9.43;;;3.87;;
15383;SDS011;7790;53.022;12.968;2022-09-29T13:52:36;5.00;;;3.10;;
15383;SDS011;7790;53.022;12.968;2022-09-29T13:56:39;8.50;;;3.80;;
15383;SDS011;7790;53.022;12.968;2022-09-29T14:00:40;7.63;;;3.60;;
15383;SDS011;7790;53.022;12.968;2022-09-29T14:09:00;5.37;;;3.60;;
15383;SDS011;7790;53.022;12.968;2022-09-29T14:17:11;4.80;;;3.50;;
15383;SDS011;7790;53.022;12.968;2022-09-29T14:21:43;4.03;;;3.10;;
15383;SDS011;7790;53.022;12.968;2022-09-29T14:25:48;6.47;;;3.57;;
15383;SDS011;7790;53.022;12.968;2022-09-29T14:29:55;7.27;;;2.83;;
15383;SDS011;7790;53.022;12.968;2022-09-29T14:34:12;4.53;;;2.90;;
15383;SDS011;7790;53.022;12.968;2022-09-29T14:38:16;7.23;;;3.50;;
15383;SDS011;7790;53.022;12.968;2022-09-29T14:42:22;4.47;;;3.00;;
15383;SDS011;7790;53.022;12.968;2022-09-29T14:51:09;4.90;;;3.20;;
15383;SDS011;7790;53.022;12.968;2022-09-29T14:55:47;3.90;;;3.10;;
15383;SDS011;7790;53.022;12.968;2022-09-29T15:04:16;3.77;;;2.53;;
15383;SDS011;7790;53.022;12.968;2022-09-29T15:08:28;4.73;;;2.63;;
15383;SDS011;7790;53.022;12.968;2022-09-29T15:12:38;3.13;;;2.70;;
15383;SDS011;7790;53.022;12.968;2022-09-29T15:21:21;5.13;;;2.53;;
15383;SDS011;7790;53.022;12.968;2022-09-29T15:25:42;3.30;;;2.43;;
15383;SDS011;7790;53.022;12.968;2022-09-29T15:29:47;3.23;;;2.77;;
15383;SDS011;7790;53.022;12.968;2022-09-29T15:33:53;3.53;;;2.43;;
15383;SDS011;7790;53.022;12.968;2022-09-29T15:50:21;2.93;;;2.53;;
15383;SDS011;7790;53.022;12.968;2022-09-29T15:54:24;2.90;;;2.30;;
15383;SDS011;7790;53.022;12.968;2022-09-29T16:02:45;2.30;;;1.93;;
15383;SDS011;7790;53.022;12.968;2022-09-29T16:07:13;3.87;;;2.37;;
15383;SDS011;7790;53.022;12.968;2022-09-29T16:11:22;2.27;;;2.07;;
15383;SDS011;7790;53.022;12.968;2022-09-29T16:15:30;3.07;;;2.50;;
15383;SDS011;7790;53.022;12.968;2022-09-29T16:19:33;2.43;;;2.23;;
15383;SDS011;7790;53.022;12.968;2022-09-29T16:23:37;2.17;;;2.07;;
15383;SDS011;7790;53.022;12.968;2022-09-29T16:27:52;1.83;;;1.70;;
15383;SDS011;7790;53.022;12.968;2022-09-29T16:36:32;2.17;;;1.77;;
15383;SDS011;7790;53.022;12.968;2022-09-29T16:40:39;2.83;;;2.40;;
15383;SDS011;7790;53.022;12.968;2022-09-29T16:44:41;2.20;;;1.87;;
15383;SDS011;7790;53.022;12.968;2022-09-29T16:48:43;2.30;;;2.10;;
15383;SDS011;7790;53.022;12.968;2022-09-29T16:52:48;1.50;;;1.40;;
15383;SDS011;7790;53.022;12.968;2022-09-29T16:57:08;2.90;;;1.93;;
15383;SDS011;7790;53.022;12.968;2022-09-29T17:01:29;1.80;;;1.70;;
15383;SDS011;7790;53.022;12.968;2022-09-29T17:05:37;2.53;;;2.17;;
15383;SDS011;7790;53.022;12.968;2022-09-29T17:09:43;2.53;;;1.90;;
15383;SDS011;7790;53.022;12.968;2022-09-29T17:13:45;1.93;;;1.80;;
15383;SDS011;7790;53.022;12.968;2022-09-29T17:17:47;2.17;;;1.90;;
15383;SDS011;7790;53.022;12.968;2022-09-29T17:21:49;2.60;;;1.80;;
15383;SDS011;7790;53.022;12.968;2022-09-29T17:25:52;1.90;;;1.80;;
15383;SDS011;7790;53.022;12.968;2022-09-29T17:30:14;1.90;;;1.70;;
15383;SDS011;7790;53.022;12.968;2022-09-29T17:34:20;2.10;;;1.63;;
15383;SDS011;7790;53.022;12.968;2022-09-29T17:38:28;1.47;;;1.37;;
15383;SDS011;7790;53.022;12.968;2022-09-29T17:42:30;3.17;;;1.67;;
15383;SDS011;7790;53.022;12.968;2022-09-29T17:46:31;1.57;;;1.47;;
15383;SDS011;7790;53.022;12.968;2022-09-29T17:50:33;1.80;;;1.70;;
15383;SDS011;7790;53.022;12.968;2022-09-29T17:54:36;2.03;;;1.33;;
15383;SDS011;7790;53.022;12.968;2022-09-29T17:58:38;2.47;;;1.77;;
15383;SDS011;7790;53.022;12.968;2022-09-29T18:02:39;1.70;;;1.60;;
15383;SDS011;7790;53.022;12.968;2022-09-29T18:06:40;1.50;;;1.40;;
15383;SDS011;7790;53.022;12.968;2022-09-29T18:14:43;2.23;;;1.80;;
15383;SDS011;7790;53.022;12.968;2022-09-29T18:18:44;1.70;;;1.60;;
15383;SDS011;7790;53.022;12.968;2022-09-29T18:22:45;1.50;;;1.40;;
15383;SDS011;7790;53.022;12.968;2022-09-29T18:26:47;1.53;;;1.27;;
15383;SDS011;7790;53.022;12.968;2022-09-29T18:30:49;1.70;;;1.60;;
15383;SDS011;7790;53.022;12.968;2022-09-29T18:34:54;1.40;;;1.30;;
15383;SDS011;7790;53.022;12.968;2022-09-29T18:38:55;1.40;;;1.30;;
15383;SDS011;7790;53.022;12.968;2022-09-29T18:42:56;2.20;;;1.23;;
15383;SDS011;7790;53.022;12.968;2022-09-29T18:46:57;1.57;;;1.40;;
15383;SDS011;7790;53.022;12.968;2022-09-29T18:50:58;1.10;;;1.10;;
15383;SDS011;7790;53.022;12.968;2022-09-29T18:54:59;1.53;;;1.43;;
15383;SDS011;7790;53.022;12.968;2022-09-29T18:59:00;1.50;;;1.40;;
15383;SDS011;7790;53.022;12.968;2022-09-29T19:03:04;1.50;;;1.40;;
15383;SDS011;7790;53.022;12.968;2022-09-29T19:07:06;1.70;;;1.53;;
15383;SDS011;7790;53.022;12.968;2022-09-29T19:11:21;1.50;;;1.40;;
15383;SDS011;7790;53.022;12.968;2022-09-29T19:15:24;1.47;;;1.30;;
15383;SDS011;7790;53.022;12.968;2022-09-29T19:19:25;1.67;;;1.57;;
15383;SDS011;7790;53.022;12.968;2022-09-29T19:23:26;1.50;;;1.40;;
15383;SDS011;7790;53.022;12.968;2022-09-29T19:27:27;1.20;;;1.20;;
15383;SDS011;7790;53.022;12.968;2022-09-29T19:31:28;1.60;;;1.50;;
15383;SDS011;7790;53.022;12.968;2022-09-29T19:35:28;1.33;;;1.23;;
15383;SDS011;7790;53.022;12.968;2022-09-29T19:39:32;1.20;;;1.20;;
15383;SDS011;7790;53.022;12.968;2022-09-29T19:43:33;2.30;;;1.33;;
15383;SDS011;7790;53.022;12.968;2022-09-29T19:47:34;1.50;;;1.30;;
15383;SDS011;7790;53.022;12.968;2022-09-29T19:51:36;1.07;;;1.07;;
15383;SDS011;7790;53.022;12.968;2022-09-29T19:55:52;2.27;;;1.20;;
15383;SDS011;7790;53.022;12.968;2022-09-29T19:59:53;2.50;;;1.30;;
15383;SDS011;7790;53.022;12.968;2022-09-29T20:03:53;1.27;;;1.17;;
15383;SDS011;7790;53.022;12.968;2022-09-29T20:07:54;1.33;;;1.10;;
15383;SDS011;7790;53.022;12.968;2022-09-29T20:11:55;1.40;;;1.17;;
15383;SDS011;7790;53.022;12.968;2022-09-29T20:15:57;1.43;;;1.33;;
15383;SDS011;7790;53.022;12.968;2022-09-29T20:19:58;1.30;;;1.20;;
15383;SDS011;7790;53.022;12.968;2022-09-29T20:23:59;1.43;;;1.30;;
15383;SDS011;7790;53.022;12.968;2022-09-29T20:28:00;1.10;;;1.10;;
15383;SDS011;7790;53.022;12.968;2022-09-29T20:32:01;1.50;;;1.40;;
15383;SDS011;7790;53.022;12.968;2022-09-29T20:36:02;1.20;;;1.20;;
15383;SDS011;7790;53.022;12.968;2022-09-29T20:40:04;1.47;;;1.37;;
15383;SDS011;7790;53.022;12.968;2022-09-29T20:44:05;1.23;;;1.20;;
15383;SDS011;7790;53.022;12.968;2022-09-29T20:48:06;1.40;;;1.30;;
15383;SDS011;7790;53.022;12.968;2022-09-29T20:52:07;1.27;;;1.17;;
15383;SDS011;7790;53.022;12.968;2022-09-29T20:56:11;1.40;;;1.30;;
15383;SDS011;7790;53.022;12.968;2022-09-29T21:00:17;1.17;;;1.10;;
15383;SDS011;7790;53.022;12.968;2022-09-29T21:04:19;1.30;;;1.20;;
15383;SDS011;7790;53.022;12.968;2022-09-29T21:08:20;1.20;;;1.20;;
15383;SDS011;7790;53.022;12.968;2022-09-29T21:12:21;0.97;;;0.97;;
15383;SDS011;7790;53.022;12.968;2022-09-29T21:16:23;1.30;;;1.20;;
15383;SDS011;7790;53.022;12.968;2022-09-29T21:20:24;1.30;;;1.23;;
15383;SDS011;7790;53.022;12.968;2022-09-29T21:24:25;1.20;;;1.20;;
15383;SDS011;7790;53.022;12.968;2022-09-29T21:28:27;1.20;;;1.20;;
15383;SDS011;7790;53.022;12.968;2022-09-29T21:32:28;1.43;;;1.33;;
15383;SDS011;7790;53.022;12.968;2022-09-29T21:36:29;1.20;;;1.10;;
15383;SDS011;7790;53.022;12.968;2022-09-29T21:40:31;1.10;;;1.10;;
15383;SDS011;7790;53.022;12.968;2022-09-29T21:44:33;1.50;;;1.40;;
15383;SDS011;7790;53.022;12.968;2022-09-29T21:48:34;1.03;;;1.00;;
15383;SDS011;7790;53.022;12.968;2022-09-29T21:52:35;1.40;;;1.30;;
15383;SDS011;7790;53.022;12.968;2022-09-29T21:56:37;0.80;;;0.80;;
15383;SDS011;7790;53.022;12.968;2022-09-29T22:00:39;1.20;;;1.20;;
15383;SDS011;7790;53.022;12.968;2022-09-29T22:04:40;1.40;;;1.30;;
15383;SDS011;7790;53.022;12.968;2022-09-29T22:08:41;1.37;;;1.27;;
15383;SDS011;7790;53.022;12.968;2022-09-29T22:12:42;1.10;;;1.03;;
15383;SDS011;7790;53.022;12.968;2022-09-29T22:16:43;1.00;;;1.00;;
15383;SDS011;7790;53.022;12.968;2022-09-29T22:20:44;1.20;;;1.10;;
15383;SDS011;7790;53.022;12.968;2022-09-29T22:24:45;1.33;;;1.20;;
15383;SDS011;7790;53.022;12.968;2022-09-29T22:28:46;1.30;;;1.03;;
15383;SDS011;7790;53.022;12.968;2022-09-29T22:32:47;2.30;;;1.30;;
15383;SDS011;7790;53.022;12.968;2022-09-29T22:36:49;5.37;;;1.47;;
15383;SDS011;7790;53.022;12.968;2022-09-29T22:40:50;4.03;;;1.50;;
15383;SDS011;7790;53.022;12.968;2022-09-29T22:44:51;6.30;;;1.50;;
15383;SDS011;7790;53.022;12.968;2022-09-29T22:48:52;4.13;;;1.47;;
15383;SDS011;7790;53.022;12.968;2022-09-29T22:52:53;6.07;;;1.73;;
15383;SDS011;7790;53.022;12.968;2022-09-29T22:56:55;2.67;;;1.40;;
15383;SDS011;7790;53.022;12.968;2022-09-29T23:01:00;4.03;;;1.33;;
15383;SDS011;7790;53.022;12.968;2022-09-29T23:05:03;3.73;;;1.40;;
15383;SDS011;7790;53.022;12.968;2022-09-29T23:09:04;4.50;;;1.43;;
15383;SDS011;7790;53.022;12.968;2022-09-29T23:13:05;5.90;;;1.43;;
15383;SDS011;7790;53.022;12.968;2022-09-29T23:17:06;2.43;;;1.50;;
15383;SDS011;7790;53.022;12.968;2022-09-29T23:21:07;3.60;;;1.47;;
15383;SDS011;7790;53.022;12.968;2022-09-29T23:25:09;8.10;;;1.50;;
15383;SDS011;7790;53.022;12.968;2022-09-29T23:29:10;4.23;;;1.33;;
15383;SDS011;7790;53.022;12.968;2022-09-29T23:33:11;1.50;;;1.40;;
15383;SDS011;7790;53.022;12.968;2022-09-29T23:37:12;6.50;;;1.57;;
15383;SDS011;7790;53.022;12.968;2022-09-29T23:41:13;1.83;;;1.40;;
15383;SDS011;7790;53.022;12.968;2022-09-29T23:45:14;3.03;;;1.20;;
15383;SDS011;7790;53.022;12.968;2022-09-29T23:49:19;3.73;;;1.40;;
15383;SDS011;7790;53.022;12.968;2022-09-29T23:53:22;2.00;;;1.47;;
15383;SDS011;7790;53.022;12.968;2022-09-29T23:57:23;1.67;;;1.20;;
